sensor_id;sensor_type;location;lat;lon;timestamp;pressure;altitude;pressure_sealevel;temperature;humidity
28267;BME280;15525;45.568;5.448;2024-03-23T00:53:37;97926.19;;;16.28;49.75
28267;BME280;15525;45.568;5.448;2024-03-23T00:56:02;97900.41;;;16.22;49.85
28267;BME280;15525;45.568;5.448;2024-03-23T00:58:29;97899.44;;;16.40;49.81
28267;BME280;15525;45.568;5.448;2024-03-23T01:00:54;97920.19;;;16.92;49.06
28267;BME280;15525;45.568;5.448;2024-03-23T01:03:19;97907.25;;;17.28;47.87
28267;BME280;15525;45.568;5.448;2024-03-23T01:05:45;97913.19;;;17.47;47.67
28267;BME280;15525;45.568;5.448;2024-03-23T01:08:10;97890.44;;;17.74;47.05
28267;BME280;15525;45.568;5.448;2024-03-23T01:10:36;97897.44;;;17.92;46.43
28267;BME280;15525;45.568;5.448;2024-03-23T01:13:01;97900.97;;;17.84;46.67
28267;BME280;15525;45.568;5.448;2024-03-23T01:15:26;97899.03;;;17.67;46.80
28267;BME280;15525;45.568;5.448;2024-03-23T01:17:52;97905.56;;;17.58;47.05
28267;BME280;15525;45.568;5.448;2024-03-23T01:20:17;97922.28;;;17.51;47.36
28267;BME280;15525;45.568;5.448;2024-03-23T01:22:42;97921.50;;;17.59;47.50
28267;BME280;15525;45.568;5.448;2024-03-23T01:25:08;97894.75;;;17.75;46.86
28267;BME280;15525;45.568;5.448;2024-03-23T01:27:33;97894.09;;;17.78;47.20
28267;BME280;15525;45.568;5.448;2024-03-23T01:29:59;97908.91;;;17.97;46.64
28267;BME280;15525;45.568;5.448;2024-03-23T01:32:24;97904.94;;;18.12;46.50
28267;BME280;15525;45.568;5.448;2024-03-23T01:34:50;97904.28;;;18.06;46.75
28267;BME280;15525;45.568;5.448;2024-03-23T01:37:15;97901.28;;;18.08;46.43
28267;BME280;15525;45.568;5.448;2024-03-23T01:39:40;97898.72;;;18.11;46.30
28267;BME280;15525;45.568;5.448;2024-03-23T01:42:06;97899.50;;;18.20;46.38
28267;BME280;15525;45.568;5.448;2024-03-23T01:44:31;97890.72;;;18.23;46.05
28267;BME280;15525;45.568;5.448;2024-03-23T01:46:57;97879.88;;;18.15;46.10
28267;BME280;15525;45.568;5.448;2024-03-23T01:49:22;97890.41;;;18.16;46.65
28267;BME280;15525;45.568;5.448;2024-03-23T01:51:48;97882.75;;;18.10;46.32
28267;BME280;15525;45.568;5.448;2024-03-23T01:54:13;97879.56;;;18.16;46.25
28267;BME280;15525;45.568;5.448;2024-03-23T01:56:39;97889.94;;;18.06;46.61
28267;BME280;15525;45.568;5.448;2024-03-23T01:59:07;97894.38;;;18.44;45.98
28267;BME280;15525;45.568;5.448;2024-03-23T02:01:34;97885.63;;;18.22;46.15
28267;BME280;15525;45.568;5.448;2024-03-23T02:04:01;97886.09;;;18.41;46.10
28267;BME280;15525;45.568;5.448;2024-03-23T02:06:27;97892.31;;;18.41;46.08
28267;BME280;15525;45.568;5.448;2024-03-23T02:08:53;97879.56;;;18.33;46.14
28267;BME280;15525;45.568;5.448;2024-03-23T02:11:19;97876.16;;;18.53;45.58
28267;BME280;15525;45.568;5.448;2024-03-23T02:13:45;97870.47;;;18.38;46.11
28267;BME280;15525;45.568;5.448;2024-03-23T02:16:10;97877.09;;;18.57;45.46
28267;BME280;15525;45.568;5.448;2024-03-23T02:18:36;97888.28;;;18.56;45.68
28267;BME280;15525;45.568;5.448;2024-03-23T02:21:01;97876.59;;;18.64;45.44
28267;BME280;15525;45.568;5.448;2024-03-23T02:23:27;97884.06;;;18.75;45.43
28267;BME280;15525;45.568;5.448;2024-03-23T02:25:52;97872.59;;;18.70;45.51
28267;BME280;15525;45.568;5.448;2024-03-23T02:28:20;97870.13;;;18.48;45.77
28267;BME280;15525;45.568;5.448;2024-03-23T02:30:48;97848.72;;;18.55;45.78
28267;BME280;15525;45.568;5.448;2024-03-23T02:33:13;97866.00;;;18.42;45.98
28267;BME280;15525;45.568;5.448;2024-03-23T02:35:39;97872.63;;;18.61;45.91
28267;BME280;15525;45.568;5.448;2024-03-23T02:38:04;97852.25;;;18.47;45.77
28267;BME280;15525;45.568;5.448;2024-03-23T02:40:30;97873.75;;;18.60;45.87
28267;BME280;15525;45.568;5.448;2024-03-23T02:42:55;97868.69;;;18.50;45.86
28267;BME280;15525;45.568;5.448;2024-03-23T02:45:20;97867.03;;;18.66;45.66
28267;BME280;15525;45.568;5.448;2024-03-23T02:47:46;97865.72;;;18.72;45.06
28267;BME280;15525;45.568;5.448;2024-03-23T02:50:13;97869.16;;;18.52;45.95
28267;BME280;15525;45.568;5.448;2024-03-23T02:52:40;97884.13;;;18.58;45.89
28267;BME280;15525;45.568;5.448;2024-03-23T02:55:06;97876.78;;;18.59;45.80
28267;BME280;15525;45.568;5.448;2024-03-23T02:57:32;97875.34;;;18.61;45.42
28267;BME280;15525;45.568;5.448;2024-03-23T02:59:57;97885.63;;;18.85;45.29
28267;BME280;15525;45.568;5.448;2024-03-23T03:02:23;97875.41;;;18.82;45.18
28267;BME280;15525;45.568;5.448;2024-03-23T03:04:48;97889.28;;;18.89;45.32
28267;BME280;15525;45.568;5.448;2024-03-23T03:07:14;97880.97;;;18.94;45.09
28267;BME280;15525;45.568;5.448;2024-03-23T03:09:39;97870.69;;;18.99;44.99
28267;BME280;15525;45.568;5.448;2024-03-23T03:12:06;97883.03;;;18.88;45.32
28267;BME280;15525;45.568;5.448;2024-03-23T03:14:31;97870.28;;;18.89;45.12
28267;BME280;15525;45.568;5.448;2024-03-23T03:16:57;97865.69;;;18.81;45.17
28267;BME280;15525;45.568;5.448;2024-03-23T03:19:22;97883.09;;;18.80;45.60
28267;BME280;15525;45.568;5.448;2024-03-23T03:21:48;97865.25;;;18.70;45.39
28267;BME280;15525;45.568;5.448;2024-03-23T03:24:14;97881.06;;;18.68;45.77
28267;BME280;15525;45.568;5.448;2024-03-23T03:26:40;97850.75;;;18.66;45.54
28267;BME280;15525;45.568;5.448;2024-03-23T03:29:05;97857.88;;;18.79;45.43
28267;BME280;15525;45.568;5.448;2024-03-23T03:31:31;97862.47;;;18.87;45.33
28267;BME280;15525;45.568;5.448;2024-03-23T03:33:56;97838.66;;;18.64;45.46
28267;BME280;15525;45.568;5.448;2024-03-23T03:36:22;97863.31;;;18.79;45.55
28267;BME280;15525;45.568;5.448;2024-03-23T03:38:47;97853.41;;;18.75;45.31
28267;BME280;15525;45.568;5.448;2024-03-23T03:41:13;97849.88;;;18.83;45.24
28267;BME280;15525;45.568;5.448;2024-03-23T03:43:38;97852.56;;;18.91;45.14
28267;BME280;15525;45.568;5.448;2024-03-23T03:46:04;97858.84;;;18.75;45.34
28267;BME280;15525;45.568;5.448;2024-03-23T03:48:29;97850.00;;;18.86;45.19
28267;BME280;15525;45.568;5.448;2024-03-23T03:50:55;97846.34;;;18.91;45.08
28267;BME280;15525;45.568;5.448;2024-03-23T03:53:20;97840.78;;;18.87;45.26
28267;BME280;15525;45.568;5.448;2024-03-23T03:55:46;97837.56;;;18.94;45.18
28267;BME280;15525;45.568;5.448;2024-03-23T03:58:11;97856.22;;;19.16;44.71
28267;BME280;15525;45.568;5.448;2024-03-23T04:00:37;97856.81;;;19.01;45.04
28267;BME280;15525;45.568;5.448;2024-03-23T04:03:02;97873.56;;;19.03;44.76
28267;BME280;15525;45.568;5.448;2024-03-23T04:05:28;97869.41;;;19.05;44.94
28267;BME280;15525;45.568;5.448;2024-03-23T04:07:53;97871.13;;;19.10;45.21
28267;BME280;15525;45.568;5.448;2024-03-23T04:10:19;97863.03;;;19.01;45.62
28267;BME280;15525;45.568;5.448;2024-03-23T04:12:45;97879.97;;;18.98;46.32
28267;BME280;15525;45.568;5.448;2024-03-23T04:15:11;97879.22;;;18.89;46.91
28267;BME280;15525;45.568;5.448;2024-03-23T04:17:36;97903.16;;;18.87;47.44
28267;BME280;15525;45.568;5.448;2024-03-23T04:20:03;97896.31;;;18.81;48.07
28267;BME280;15525;45.568;5.448;2024-03-23T04:22:34;97889.22;;;18.68;48.36
28267;BME280;15525;45.568;5.448;2024-03-23T04:25:00;97888.84;;;18.78;48.40
28267;BME280;15525;45.568;5.448;2024-03-23T04:27:32;97878.19;;;18.73;48.25
28267;BME280;15525;45.568;5.448;2024-03-23T04:29:57;97885.19;;;18.74;48.59
28267;BME280;15525;45.568;5.448;2024-03-23T04:32:22;97895.38;;;18.77;48.83
28267;BME280;15525;45.568;5.448;2024-03-23T04:34:48;97869.09;;;18.61;49.22
28267;BME280;15525;45.568;5.448;2024-03-23T04:37:13;97885.38;;;18.61;49.66
28267;BME280;15525;45.568;5.448;2024-03-23T04:39:39;97883.03;;;18.51;49.95
28267;BME280;15525;45.568;5.448;2024-03-23T04:42:05;97905.19;;;18.53;50.28
28267;BME280;15525;45.568;5.448;2024-03-23T04:44:30;97910.63;;;18.53;50.68
28267;BME280;15525;45.568;5.448;2024-03-23T04:46:57;97913.34;;;18.44;51.11
28267;BME280;15525;45.568;5.448;2024-03-23T04:49:22;97920.34;;;18.45;50.79
28267;BME280;15525;45.568;5.448;2024-03-23T04:51:48;97920.53;;;18.40;51.15
28267;BME280;15525;45.568;5.448;2024-03-23T04:54:13;97932.03;;;18.37;51.26
28267;BME280;15525;45.568;5.448;2024-03-23T04:56:38;97926.91;;;18.36;51.16
28267;BME280;15525;45.568;5.448;2024-03-23T04:59:04;97914.34;;;18.14;51.41
28267;BME280;15525;45.568;5.448;2024-03-23T05:01:33;97933.44;;;18.18;52.42
28267;BME280;15525;45.568;5.448;2024-03-23T05:03:58;97929.13;;;18.08;52.24
28267;BME280;15525;45.568;5.448;2024-03-23T05:06:24;97932.81;;;18.12;52.11
28267;BME280;15525;45.568;5.448;2024-03-23T05:08:53;97933.94;;;18.11;51.93
28267;BME280;15525;45.568;5.448;2024-03-23T05:11:19;97948.44;;;18.15;52.02
28267;BME280;15525;45.568;5.448;2024-03-23T05:13:46;97960.88;;;18.25;52.17
28267;BME280;15525;45.568;5.448;2024-03-23T05:16:11;97968.03;;;18.21;52.08
28267;BME280;15525;45.568;5.448;2024-03-23T05:18:37;97992.72;;;18.11;52.21
28267;BME280;15525;45.568;5.448;2024-03-23T05:21:02;98001.31;;;17.96;52.65
28267;BME280;15525;45.568;5.448;2024-03-23T05:23:28;98006.44;;;17.97;52.29
28267;BME280;15525;45.568;5.448;2024-03-23T05:25:54;97990.81;;;17.94;52.17
28267;BME280;15525;45.568;5.448;2024-03-23T05:28:20;98022.03;;;17.92;52.77
28267;BME280;15525;45.568;5.448;2024-03-23T05:30:55;98019.44;;;17.61;53.91
28267;BME280;15525;45.568;5.448;2024-03-23T05:33:22;98037.94;;;17.76;52.92
28267;BME280;15525;45.568;5.448;2024-03-23T05:36:00;98049.91;;;17.84;53.62
28267;BME280;15525;45.568;5.448;2024-03-23T05:38:26;98047.00;;;17.63;52.84
28267;BME280;15525;45.568;5.448;2024-03-23T05:40:55;98050.16;;;17.65;53.18
28267;BME280;15525;45.568;5.448;2024-03-23T05:43:21;98063.09;;;17.68;52.71
28267;BME280;15525;45.568;5.448;2024-03-23T05:45:56;98070.31;;;17.42;54.46
28267;BME280;15525;45.568;5.448;2024-03-23T05:48:22;98073.31;;;17.41;53.53
28267;BME280;15525;45.568;5.448;2024-03-23T05:50:51;98088.13;;;17.43;54.25
28267;BME280;15525;45.568;5.448;2024-03-23T05:53:16;98096.38;;;17.38;53.81
28267;BME280;15525;45.568;5.448;2024-03-23T05:55:42;98098.34;;;17.46;53.55
28267;BME280;15525;45.568;5.448;2024-03-23T05:58:08;98105.03;;;17.40;53.74
28267;BME280;15525;45.568;5.448;2024-03-23T06:00:34;98107.94;;;17.52;53.17
28267;BME280;15525;45.568;5.448;2024-03-23T06:02:59;98100.25;;;17.24;54.05
28267;BME280;15525;45.568;5.448;2024-03-23T06:05:25;98096.28;;;17.21;54.17
28267;BME280;15525;45.568;5.448;2024-03-23T06:07:51;98111.00;;;17.37;53.94
28267;BME280;15525;45.568;5.448;2024-03-23T06:10:16;98120.78;;;17.47;53.45
28267;BME280;15525;45.568;5.448;2024-03-23T06:12:41;98101.38;;;17.45;53.23
28267;BME280;15525;45.568;5.448;2024-03-23T06:15:07;98119.91;;;17.60;53.48
28267;BME280;15525;45.568;5.448;2024-03-23T06:17:38;98124.16;;;17.52;53.58
28267;BME280;15525;45.568;5.448;2024-03-23T06:20:04;98139.66;;;17.60;53.06
28267;BME280;15525;45.568;5.448;2024-03-23T06:22:31;98137.69;;;17.52;53.06
28267;BME280;15525;45.568;5.448;2024-03-23T06:24:57;98148.53;;;17.52;53.73
28267;BME280;15525;45.568;5.448;2024-03-23T06:27:22;98151.19;;;17.44;53.81
28267;BME280;15525;45.568;5.448;2024-03-23T06:29:47;98144.50;;;17.41;53.75
28267;BME280;15525;45.568;5.448;2024-03-23T06:32:13;98137.03;;;17.47;53.47
28267;BME280;15525;45.568;5.448;2024-03-23T06:34:41;98143.56;;;17.24;53.95
28267;BME280;15525;45.568;5.448;2024-03-23T06:37:06;98172.84;;;17.22;54.18
28267;BME280;15525;45.568;5.448;2024-03-23T06:39:32;98180.25;;;17.16;54.02
28267;BME280;15525;45.568;5.448;2024-03-23T06:41:58;98164.03;;;16.72;54.61
28267;BME280;15525;45.568;5.448;2024-03-23T06:44:23;98182.72;;;16.82;54.06
28267;BME280;15525;45.568;5.448;2024-03-23T06:46:49;98187.16;;;17.00;53.49
28267;BME280;15525;45.568;5.448;2024-03-23T06:49:15;98179.41;;;17.07;52.88
28267;BME280;15525;45.568;5.448;2024-03-23T06:51:41;98184.59;;;17.39;52.18
28267;BME280;15525;45.568;5.448;2024-03-23T06:54:06;98187.41;;;17.56;51.61
28267;BME280;15525;45.568;5.448;2024-03-23T06:56:32;98185.81;;;17.55;51.70
28267;BME280;15525;45.568;5.448;2024-03-23T06:58:58;98184.91;;;17.16;51.73
28267;BME280;15525;45.568;5.448;2024-03-23T07:01:24;98200.75;;;17.31;51.51
28267;BME280;15525;45.568;5.448;2024-03-23T07:03:49;98196.50;;;17.60;50.86
28267;BME280;15525;45.568;5.448;2024-03-23T07:06:15;98202.53;;;17.57;50.44
28267;BME280;15525;45.568;5.448;2024-03-23T07:08:40;98202.13;;;17.20;50.87
28267;BME280;15525;45.568;5.448;2024-03-23T07:11:07;98227.13;;;17.69;50.56
28267;BME280;15525;45.568;5.448;2024-03-23T07:13:32;98216.47;;;17.42;50.67
28267;BME280;15525;45.568;5.448;2024-03-23T07:15:58;98214.31;;;17.17;51.34
28267;BME280;15525;45.568;5.448;2024-03-23T07:18:25;98230.66;;;16.90;51.69
28267;BME280;15525;45.568;5.448;2024-03-23T07:23:19;98250.25;;;16.96;51.10
28267;BME280;15525;45.568;5.448;2024-03-23T07:25:45;98269.47;;;16.72;52.07
28267;BME280;15525;45.568;5.448;2024-03-23T07:28:10;98264.16;;;16.54;52.22
28267;BME280;15525;45.568;5.448;2024-03-23T07:30:36;98288.38;;;16.59;52.19
28267;BME280;15525;45.568;5.448;2024-03-23T07:33:01;98294.88;;;16.31;52.22
28267;BME280;15525;45.568;5.448;2024-03-23T07:35:26;98306.78;;;16.30;52.50
28267;BME280;15525;45.568;5.448;2024-03-23T07:37:52;98301.72;;;16.10;52.41
28267;BME280;15525;45.568;5.448;2024-03-23T07:40:17;98300.78;;;16.33;52.26
28267;BME280;15525;45.568;5.448;2024-03-23T07:42:43;98329.75;;;16.14;52.17
28267;BME280;15525;45.568;5.448;2024-03-23T07:45:08;98336.81;;;15.64;53.03
28267;BME280;15525;45.568;5.448;2024-03-23T07:47:34;98330.41;;;15.92;52.27
28267;BME280;15525;45.568;5.448;2024-03-23T07:50:00;98343.25;;;16.14;52.07
28267;BME280;15525;45.568;5.448;2024-03-23T07:52:28;98349.03;;;15.75;52.28
28267;BME280;15525;45.568;5.448;2024-03-23T07:54:54;98378.88;;;15.28;52.62
28267;BME280;15525;45.568;5.448;2024-03-23T07:57:19;98363.63;;;14.77;52.89
28267;BME280;15525;45.568;5.448;2024-03-23T07:59:45;98369.16;;;15.09;52.42
28267;BME280;15525;45.568;5.448;2024-03-23T08:02:10;98376.94;;;14.92;52.07
28267;BME280;15525;45.568;5.448;2024-03-23T08:04:36;98402.09;;;15.48;51.23
28267;BME280;15525;45.568;5.448;2024-03-23T08:07:01;98407.34;;;15.58;51.01
28267;BME280;15525;45.568;5.448;2024-03-23T08:09:27;98413.59;;;15.11;51.97
28267;BME280;15525;45.568;5.448;2024-03-23T08:11:53;98430.81;;;15.57;51.09
28267;BME280;15525;45.568;5.448;2024-03-23T08:14:18;98433.69;;;14.77;50.78
28267;BME280;15525;45.568;5.448;2024-03-23T08:16:44;98432.44;;;14.69;49.92
28267;BME280;15525;45.568;5.448;2024-03-23T08:19:14;98454.19;;;14.49;49.67
28267;BME280;15525;45.568;5.448;2024-03-23T08:21:39;98452.75;;;14.28;49.26
28267;BME280;15525;45.568;5.448;2024-03-23T08:24:05;98453.47;;;14.05;47.75
28267;BME280;15525;45.568;5.448;2024-03-23T08:26:31;98479.97;;;13.83;48.19
28267;BME280;15525;45.568;5.448;2024-03-23T08:28:56;98470.22;;;13.49;47.57
28267;BME280;15525;45.568;5.448;2024-03-23T08:31:22;98490.06;;;13.63;47.35
28267;BME280;15525;45.568;5.448;2024-03-23T08:33:47;98476.94;;;13.56;46.92
28267;BME280;15525;45.568;5.448;2024-03-23T08:36:13;98475.81;;;13.62;46.62
28267;BME280;15525;45.568;5.448;2024-03-23T08:38:39;98471.94;;;13.78;46.48
28267;BME280;15525;45.568;5.448;2024-03-23T08:41:09;98468.19;;;13.79;45.34
28267;BME280;15525;45.568;5.448;2024-03-23T08:43:39;98471.88;;;13.50;45.66
28267;BME280;15525;45.568;5.448;2024-03-23T08:46:09;98495.81;;;13.90;45.32
28267;BME280;15525;45.568;5.448;2024-03-23T08:48:36;98486.88;;;13.99;44.75
28267;BME280;15525;45.568;5.448;2024-03-23T08:51:06;98484.31;;;14.18;44.35
28267;BME280;15525;45.568;5.448;2024-03-23T08:53:32;98494.03;;;14.19;44.10
28267;BME280;15525;45.568;5.448;2024-03-23T08:55:58;98485.16;;;14.13;43.73
28267;BME280;15525;45.568;5.448;2024-03-23T08:58:25;98496.06;;;13.98;44.05
28267;BME280;15525;45.568;5.448;2024-03-23T09:00:55;98495.84;;;13.85;43.37
28267;BME280;15525;45.568;5.448;2024-03-23T09:03:22;98501.00;;;14.20;43.45
28267;BME280;15525;45.568;5.448;2024-03-23T09:05:47;98483.41;;;13.94;43.17
28267;BME280;15525;45.568;5.448;2024-03-23T09:08:13;98494.75;;;13.91;42.95
28267;BME280;15525;45.568;5.448;2024-03-23T09:10:39;98497.94;;;14.36;42.76
28267;BME280;15525;45.568;5.448;2024-03-23T09:13:04;98477.97;;;15.65;40.72
28267;BME280;15525;45.568;5.448;2024-03-23T09:15:30;98483.56;;;16.24;40.19
28267;BME280;15525;45.568;5.448;2024-03-23T09:17:56;98471.00;;;16.14;39.15
28267;BME280;15525;45.568;5.448;2024-03-23T09:20:21;98472.69;;;15.55;39.20
28267;BME280;15525;45.568;5.448;2024-03-23T09:22:48;98493.72;;;15.34;38.96
28267;BME280;15525;45.568;5.448;2024-03-23T09:25:13;98501.81;;;15.34;38.87
28267;BME280;15525;45.568;5.448;2024-03-23T09:27:39;98501.63;;;15.26;38.23
28267;BME280;15525;45.568;5.448;2024-03-23T09:30:07;98502.31;;;15.13;38.02
28267;BME280;15525;45.568;5.448;2024-03-23T09:32:32;98495.84;;;15.37;37.42
28267;BME280;15525;45.568;5.448;2024-03-23T09:34:58;98521.91;;;14.95;36.90
28267;BME280;15525;45.568;5.448;2024-03-23T09:37:23;98501.81;;;15.34;36.82
28267;BME280;15525;45.568;5.448;2024-03-23T09:39:48;98524.50;;;15.75;36.01
28267;BME280;15525;45.568;5.448;2024-03-23T09:42:14;98509.69;;;15.73;36.33
28267;BME280;15525;45.568;5.448;2024-03-23T09:44:40;98496.56;;;16.40;36.22
28267;BME280;15525;45.568;5.448;2024-03-23T09:47:07;98482.38;;;17.21;35.41
28267;BME280;15525;45.568;5.448;2024-03-23T09:49:34;98502.19;;;16.57;35.38
28267;BME280;15525;45.568;5.448;2024-03-23T09:52:02;98503.00;;;16.39;36.05
28267;BME280;15525;45.568;5.448;2024-03-23T09:54:28;98497.50;;;16.49;36.07
28267;BME280;15525;45.568;5.448;2024-03-23T09:56:53;98491.28;;;17.08;35.33
28267;BME280;15525;45.568;5.448;2024-03-23T09:59:18;98481.66;;;17.15;35.09
28267;BME280;15525;45.568;5.448;2024-03-23T10:01:44;98503.78;;;16.45;35.74
28267;BME280;15525;45.568;5.448;2024-03-23T10:04:09;98490.59;;;17.29;35.32
28267;BME280;15525;45.568;5.448;2024-03-23T10:06:35;98483.19;;;17.35;33.72
28267;BME280;15525;45.568;5.448;2024-03-23T10:09:02;98487.59;;;17.31;34.84
28267;BME280;15525;45.568;5.448;2024-03-23T10:11:27;98494.00;;;17.48;34.74
28267;BME280;15525;45.568;5.448;2024-03-23T10:13:54;98505.31;;;17.23;35.37
28267;BME280;15525;45.568;5.448;2024-03-23T10:16:23;98491.72;;;17.55;34.96
28267;BME280;15525;45.568;5.448;2024-03-23T10:18:49;98513.78;;;16.76;35.41
28267;BME280;15525;45.568;5.448;2024-03-23T10:21:15;98472.53;;;17.65;34.89
28267;BME280;15525;45.568;5.448;2024-03-23T10:23:42;98501.03;;;17.49;35.23
28267;BME280;15525;45.568;5.448;2024-03-23T10:26:18;98501.34;;;17.48;33.91
28267;BME280;15525;45.568;5.448;2024-03-23T10:28:59;98487.66;;;17.12;34.51
28267;BME280;15525;45.568;5.448;2024-03-23T10:31:36;98479.25;;;17.68;33.48
28267;BME280;15525;45.568;5.448;2024-03-23T10:34:03;98492.72;;;17.59;32.12
28267;BME280;15525;45.568;5.448;2024-03-23T10:36:29;98480.47;;;17.62;32.84
28267;BME280;15525;45.568;5.448;2024-03-23T10:38:56;98494.28;;;18.45;32.12
28267;BME280;15525;45.568;5.448;2024-03-23T10:41:26;98502.31;;;17.65;32.87
28267;BME280;15525;45.568;5.448;2024-03-23T10:43:53;98467.41;;;17.77;32.85
28267;BME280;15525;45.568;5.448;2024-03-23T10:46:18;98506.50;;;17.71;33.82
28267;BME280;15525;45.568;5.448;2024-03-23T10:48:44;98481.16;;;16.86;34.36
28267;BME280;15525;45.568;5.448;2024-03-23T10:51:10;98488.91;;;17.20;34.45
28267;BME280;15525;45.568;5.448;2024-03-23T10:53:36;98474.53;;;17.06;33.90
28267;BME280;15525;45.568;5.448;2024-03-23T10:56:05;98465.94;;;17.58;32.67
28267;BME280;15525;45.568;5.448;2024-03-23T10:58:35;98463.47;;;17.83;32.40
28267;BME280;15525;45.568;5.448;2024-03-23T11:01:02;98452.41;;;16.90;33.45
28267;BME280;15525;45.568;5.448;2024-03-23T11:03:35;98458.81;;;17.21;33.29
28267;BME280;15525;45.568;5.448;2024-03-23T11:06:07;98445.88;;;16.64;34.05
28267;BME280;15525;45.568;5.448;2024-03-23T11:08:40;98467.41;;;16.83;33.36
28267;BME280;15525;45.568;5.448;2024-03-23T11:13:38;98433.94;;;18.17;32.44
28267;BME280;15525;45.568;5.448;2024-03-23T11:16:33;98454.00;;;17.32;32.95
28267;BME280;15525;45.568;5.448;2024-03-23T11:19:35;98451.59;;;17.03;32.72
28267;BME280;15525;45.568;5.448;2024-03-23T11:22:04;98443.97;;;16.92;33.75
28267;BME280;15525;45.568;5.448;2024-03-23T11:24:33;98420.38;;;17.73;32.09
28267;BME280;15525;45.568;5.448;2024-03-23T11:27:00;98427.28;;;18.23;31.19
28267;BME280;15525;45.568;5.448;2024-03-23T11:29:27;98417.69;;;19.00;30.99
28267;BME280;15525;45.568;5.448;2024-03-23T11:31:53;98433.06;;;20.12;29.91
28267;BME280;15525;45.568;5.448;2024-03-23T11:34:19;98428.44;;;19.22;30.44
28267;BME280;15525;45.568;5.448;2024-03-23T11:36:46;98409.16;;;19.24;30.52
28267;BME280;15525;45.568;5.448;2024-03-23T11:39:16;98427.13;;;19.84;29.87
28267;BME280;15525;45.568;5.448;2024-03-23T11:41:53;98431.19;;;20.67;28.71
28267;BME280;15525;45.568;5.448;2024-03-23T11:44:20;98420.84;;;21.36;29.01
28267;BME280;15525;45.568;5.448;2024-03-23T11:46:46;98419.91;;;21.32;28.97
28267;BME280;15525;45.568;5.448;2024-03-23T11:49:25;98400.66;;;21.57;29.07
28267;BME280;15525;45.568;5.448;2024-03-23T11:51:52;98410.13;;;22.01;28.47
28267;BME280;15525;45.568;5.448;2024-03-23T11:54:26;98404.34;;;22.55;27.19
28267;BME280;15525;45.568;5.448;2024-03-23T11:57:08;98391.38;;;21.79;26.99
28267;BME280;15525;45.568;5.448;2024-03-23T11:59:34;98402.84;;;20.76;30.07
28267;BME280;15525;45.568;5.448;2024-03-23T12:02:00;98394.34;;;19.89;30.68
28267;BME280;15525;45.568;5.448;2024-03-23T12:04:29;98386.88;;;19.13;30.90
28267;BME280;15525;45.568;5.448;2024-03-23T12:09:36;98376.94;;;20.70;29.58
28267;BME280;15525;45.568;5.448;2024-03-23T12:12:08;98369.69;;;21.21;28.22
28267;BME280;15525;45.568;5.448;2024-03-23T12:14:34;98375.59;;;21.23;27.89
28267;BME280;15525;45.568;5.448;2024-03-23T12:17:10;98383.53;;;21.98;26.34
28267;BME280;15525;45.568;5.448;2024-03-23T12:19:35;98377.22;;;20.77;28.48
28267;BME280;15525;45.568;5.448;2024-03-23T12:22:03;98398.94;;;18.51;29.39
28267;BME280;15525;45.568;5.448;2024-03-23T12:24:29;98373.91;;;17.44;30.89
28267;BME280;15525;45.568;5.448;2024-03-23T12:26:54;98365.28;;;18.52;30.27
28267;BME280;15525;45.568;5.448;2024-03-23T12:29:20;98355.47;;;20.31;28.15
28267;BME280;15525;45.568;5.448;2024-03-23T12:31:45;98375.16;;;19.77;26.23
28267;BME280;15525;45.568;5.448;2024-03-23T12:34:11;98371.34;;;20.12;26.60
28267;BME280;15525;45.568;5.448;2024-03-23T12:36:37;98345.00;;;20.50;26.09
28267;BME280;15525;45.568;5.448;2024-03-23T12:39:02;98324.63;;;20.65;25.97
28267;BME280;15525;45.568;5.448;2024-03-23T12:41:28;98348.28;;;21.31;25.85
28267;BME280;15525;45.568;5.448;2024-03-23T12:43:53;98340.34;;;22.20;25.17
28267;BME280;15525;45.568;5.448;2024-03-23T12:46:18;98320.47;;;21.46;26.04
28267;BME280;15525;45.568;5.448;2024-03-23T12:48:47;98335.31;;;20.70;24.58
28267;BME280;15525;45.568;5.448;2024-03-23T12:51:12;98326.22;;;20.28;24.25
28267;BME280;15525;45.568;5.448;2024-03-23T12:53:37;98319.63;;;20.67;24.54
28267;BME280;15525;45.568;5.448;2024-03-23T12:56:03;98324.50;;;21.20;24.40
28267;BME280;15525;45.568;5.448;2024-03-23T12:58:28;98309.06;;;21.65;24.63
28267;BME280;15525;45.568;5.448;2024-03-23T13:00:54;98319.88;;;19.73;24.15
28267;BME280;15525;45.568;5.448;2024-03-23T13:03:19;98315.75;;;19.33;25.90
28267;BME280;15525;45.568;5.448;2024-03-23T13:05:51;98319.06;;;20.15;23.07
28267;BME280;15525;45.568;5.448;2024-03-23T13:08:17;98277.78;;;20.13;23.85
28267;BME280;15525;45.568;5.448;2024-03-23T13:10:42;98279.88;;;20.54;23.52
28267;BME280;15525;45.568;5.448;2024-03-23T13:13:08;98282.91;;;21.52;23.37
28267;BME280;15525;45.568;5.448;2024-03-23T13:15:33;98290.75;;;21.53;22.92
28267;BME280;15525;45.568;5.448;2024-03-23T13:17:59;98284.78;;;20.89;22.99
28267;BME280;15525;45.568;5.448;2024-03-23T13:20:24;98281.31;;;20.14;23.07
28267;BME280;15525;45.568;5.448;2024-03-23T13:22:49;98285.06;;;20.67;23.82
28267;BME280;15525;45.568;5.448;2024-03-23T13:25:17;98283.25;;;21.09;22.45
28267;BME280;15525;45.568;5.448;2024-03-23T13:27:44;98265.84;;;19.80;22.64
28267;BME280;15525;45.568;5.448;2024-03-23T13:30:10;98270.69;;;20.29;22.99
28267;BME280;15525;45.568;5.448;2024-03-23T13:32:35;98268.44;;;20.98;22.17
28267;BME280;15525;45.568;5.448;2024-03-23T13:35:01;98263.69;;;20.57;22.66
28267;BME280;15525;45.568;5.448;2024-03-23T13:37:26;98261.25;;;21.76;22.51
28267;BME280;15525;45.568;5.448;2024-03-23T13:39:52;98256.53;;;22.65;22.25
28267;BME280;15525;45.568;5.448;2024-03-23T13:42:17;98237.50;;;21.76;22.29
28267;BME280;15525;45.568;5.448;2024-03-23T13:44:43;98239.88;;;21.78;22.22
28267;BME280;15525;45.568;5.448;2024-03-23T13:47:08;98261.38;;;21.79;22.55
28267;BME280;15525;45.568;5.448;2024-03-23T13:49:34;98248.84;;;22.23;22.56
28267;BME280;15525;45.568;5.448;2024-03-23T13:52:00;98259.03;;;22.02;22.63
28267;BME280;15525;45.568;5.448;2024-03-23T13:54:26;98248.97;;;22.38;21.67
28267;BME280;15525;45.568;5.448;2024-03-23T13:56:52;98262.38;;;21.54;22.00